• Join FlightAware (Why Join?)
  • Login
  • US Flag 
03:03PM EDT


 

Airport Tracker/Info


-or-


 

Live Flight TrackerFlight Track Log ✈ N8932U ✈ 09-Feb-2014 ✈ KAPF - KLAL

Flight Track Log - Related Links

Times and Time Zones

All times are in EST time to prevent confusion due to time zone crossing. See the N8932U flight status page for this flight to view local times or setup timezone preferences in your user account.

Time Position Orientation Groundspeed Altitude Reporting Facility
EST Latitude Longitude Course Direction KTS MPH feet Rate Location/Type
12:37PM 26.3341 -81.7868 350° North  Level FlightAware Approximate
12:38PM 26.3645 -81.7929 350° North  Level FlightAware Approximate
12:38PM 26.3975 -81.8103 355° North 162 186 6,100  Level Miami Center
12:39PM 26.3948 -81.7990 350° North  Level FlightAware Approximate
12:39PM 26.4411 -81.8144 355° North 162 186 6,000  Level Miami Center
12:40PM 26.4255 -81.8024 355° North  Level FlightAware Approximate
12:40PM 26.4889 -81.8258 348° North 162 186 6,100  Level Miami Center
12:41PM 26.4562 -81.8053 355° North  Level FlightAware Approximate
12:41PM 26.5344 -81.8300 355° North 172 198 6,000  Level Miami Center
12:42PM 26.4870 -81.8082 355° North  Level FlightAware Approximate
12:42PM 26.5800 -81.8411 348° North 172 198 6,000  Level Miami Center
12:44PM 26.6653 -81.8564 357° North 165 190 6,000  Level Miami Center
12:46PM 26.7583 -81.8744 359° North 165 190 6,100  Climbing Miami Center
12:47PM 26.8042 -81.8808 353° North 165 190 6,100  Level Miami Center
12:49PM 26.8964 -81.8733 North 171 197 6,100  Level Miami Center
12:50PM 26.9450 -81.8522 21° North 171 197 6,100  Level Miami Center
12:51PM 26.9847 -81.8539 358° North 170 196 6,100 -60 Level Miami Center
12:53PM 27.0719 -81.8644 354° North 159 183 6,000  Descending Miami Center
12:54PM 27.1175 -81.8711 353° North 159 183 6,100  Climbing Miami Center
12:55PM 27.1633 -81.8756 355° North 159 183 6,000 -60 Descending Miami Center
12:57PM 27.2569 -81.8889 355° North 159 183 6,000  Level Miami Center
12:58PM 27.3025 -81.8956 353° North 159 183 6,100  Climbing Miami Center
12:59PM 27.3461 -81.9044 350° North 159 183 6,100  Level Miami Center
01:01PM 27.4353 -81.9225 352° North 159 183 6,100  Level Miami Center
01:02PM 27.4808 -81.9292 353° North 159 183 6,100  Level Miami Center
01:03PM 27.5244 -81.9381 350° North 159 183 6,100  Level Miami Center
01:04PM 27.5722 -81.9447 353° North 159 183 6,100 -240 Level Miami Center
01:06PM 27.6667 -81.9667 348° North 162 186 5,400 -420 Descending Tampa TRACON
01:07PM 27.7069 -81.9672 359° North 166 191 4,900 -540 Descending Miami Center
01:08PM 27.7483 -81.9786 346° North 160 184 4,400 -360 Descending Miami Center
01:09PM 27.7853 -81.9919 342° North 160 184 4,200 -300 Descending Miami Center
01:10PM 27.8267 -82.0008 349° North 160 184 3,900 -120 Descending Miami Center
01:11PM 27.8681 -82.0097 349° North 160 184 4,000  Climbing Miami Center
01:12PM 27.9097 -82.0164 352° North 160 184 4,000  Level Miami Center
01:14PM 27.9097 -82.0164 24° Northeast 160 184 4,000  Level Miami Center
01:16PM 27.9568 -82.0166 360° North  Level FlightAware Approximate
01:23PM 27.9833 -82.0167 350° North  Level FlightAware Approximate
01:24PM 27.9889 -82.0186 350° North  Level Estimated
01:25PM 27.9833 -82.0167 350° North  Level FlightAware Approximate
01:26PM 27.9889 -82.0186 350° North  Level Estimated
01:27PM 27.9833 -82.0167 350° North  Level FlightAware Approximate
01:28PM 27.9889 -82.0186 350° North  Level Estimated
01:29PM 27.9833 -82.0167 350° North  Level FlightAware Approximate
01:30PM 27.9889 -82.0186 350° North  Level Estimated